Time;durP1;ratioP1;P1;durP2;ratioP2;P2;SDS_P1;SDS_P2;PMS_P1;PMS_P2;Temp;Humidity;BMP_temperature;BMP_pressure;BME280_temperature;BME280_humidity;BME280_pressure;Samples;Min_cycle;Max_cycle;Signal;HPM_P1;HPM_P2
2021/12/16 00:01:43;;;;;;;8.30;5.60;;;16.20;59.70;;;;;;5114242;28;20030;-42
2021/12/16 00:04:31;;;;;;;7.47;5.63;;;16.10;59.70;;;;;;5114325;28;20071;-37
2021/12/16 00:09:17;;;;;;;7.05;5.78;;;16.10;59.70;;;;;;5098674;28;20012;-37
2021/12/16 00:36:14;;;;;;;8.00;5.50;;;16.10;59.90;;;;;;5101073;28;20027;-37
2021/12/16 00:38:40;;;;;;;6.47;5.30;;;16.10;59.90;;;;;;5114754;28;20169;-37
2021/12/16 00:41:07;;;;;;;6.53;5.55;;;16.10;59.80;;;;;;5114581;28;20024;-37
2021/12/16 00:44:14;;;;;;;5.70;5.10;;;16.10;59.80;;;;;;5114484;28;20049;-38
2021/12/16 00:46:54;;;;;;;7.50;5.30;;;16.10;59.80;;;;;;5111213;28;20112;-37
2021/12/16 00:49:33;;;;;;;6.90;5.32;;;16.00;59.80;;;;;;5113642;28;20032;-37
2021/12/16 00:54:48;;;;;;;6.68;5.53;;;16.10;59.90;;;;;;5118144;28;20127;-37
2021/12/16 00:57:15;;;;;;;5.97;5.30;;;16.10;59.80;;;;;;5117689;28;20023;-37
2021/12/16 00:59:44;;;;;;;6.15;5.25;;;16.10;59.90;;;;;;5099266;28;20509;-37
2021/12/16 01:38:02;;;;;;;6.57;5.25;;;16.10;59.50;;;;;;5116607;28;20027;-40
2021/12/16 01:51:37;;;;;;;5.90;5.30;;;16.10;59.50;;;;;;5116937;28;20039;-37
2021/12/16 01:59:35;;;;;;;5.78;5.18;;;16.00;59.60;;;;;;5116525;28;20043;-37
2021/12/16 02:02:12;;;;;;;6.15;5.28;;;16.00;59.70;;;;;;5116711;28;20036;-38
2021/12/16 02:05:05;;;;;;;6.60;5.55;;;16.10;59.80;;;;;;5116450;28;20012;-39
2021/12/16 02:07:46;;;;;;;6.43;5.63;;;16.10;59.70;;;;;;5115957;28;20443;-38
2021/12/16 02:10:12;;;;;;;8.70;6.20;;;16.00;59.60;;;;;;5116142;28;20043;-37
2021/12/16 02:34:21;;;;;;;7.47;5.53;;;16.10;59.40;;;;;;5117298;28;20466;-39
2021/12/16 02:36:47;;;;;;;6.57;5.07;;;16.10;59.50;;;;;;5117233;28;20019;-38
2021/12/16 02:39:27;;;;;;;6.43;5.38;;;16.10;59.40;;;;;;5098997;28;20023;-40
2021/12/16 02:42:12;;;;;;;6.20;5.30;;;16.00;59.50;;;;;;5116798;28;20023;-41
2021/12/16 02:48:28;;;;;;;6.32;5.07;;;16.00;59.50;;;;;;5116193;28;20012;-39
2021/12/16 02:50:10;;;;;;;5.80;5.20;;;16.00;59.60;;;;;;5116162;28;20035;-39
2021/12/16 02:52:35;;;;;;;8.50;5.63;;;16.10;59.50;;;;;;5098084;28;20023;-41
2021/12/16 02:55:02;;;;;;;7.20;5.25;;;16.10;59.40;;;;;;5116016;28;20485;-40
2021/12/16 02:57:29;;;;;;;7.40;5.40;;;16.10;59.50;;;;;;5116157;28;20161;-39
2021/12/16 02:59:55;;;;;;;6.10;5.50;;;16.10;59.40;;;;;;5115881;28;20035;-41
2021/12/16 03:02:22;;;;;;;6.65;5.10;;;16.10;59.20;;;;;;5115768;28;20475;-41
2021/12/16 03:04:50;;;;;;;6.63;5.32;;;16.10;59.30;;;;;;5115872;28;20053;-41
2021/12/16 03:07:18;;;;;;;6.40;5.00;;;16.10;59.20;;;;;;5115924;28;20527;-40
2021/12/16 03:15:15;;;;;;;6.32;5.55;;;16.10;59.30;;;;;;5114527;28;20087;-41
2021/12/16 03:18:08;;;;;;;6.35;5.45;;;16.10;59.30;;;;;;5114614;28;20092;-40
2021/12/16 03:23:26;;;;;;;6.63;5.30;;;16.10;59.30;;;;;;5114861;28;20500;-41
2021/12/16 03:28:48;;;;;;;6.35;5.22;;;16.00;59.30;;;;;;5096565;28;20059;-42
2021/12/16 03:36:32;;;;;;;6.82;5.50;;;16.00;59.40;;;;;;5114717;28;20034;-41
2021/12/16 03:39:08;;;;;;;6.15;5.20;;;16.00;59.50;;;;;;5114475;28;20022;-44
2021/12/16 03:41:35;;;;;;;7.10;5.60;;;16.00;59.40;;;;;;5096082;28;20027;-43
2021/12/16 03:44:04;;;;;;;5.40;4.85;;;16.10;59.40;;;;;;5114203;28;20006;-43
2021/12/16 03:46:33;;;;;;;6.93;5.57;;;16.10;59.30;;;;;;5114567;28;20016;-44
2021/12/16 03:49:09;;;;;;;6.07;5.05;;;16.10;59.40;;;;;;5114344;28;20050;-43
2021/12/16 03:51:37;;;;;;;6.28;5.03;;;16.00;59.30;;;;;;5114874;28;20020;-42
2021/12/16 03:54:14;;;;;;;6.70;5.30;;;16.00;59.50;;;;;;5114944;28;20102;-46
2021/12/16 03:56:41;;;;;;;7.15;5.35;;;16.00;59.40;;;;;;5114821;28;20042;-49
2021/12/16 03:59:08;;;;;;;6.63;5.57;;;16.10;59.50;;;;;;5115825;28;20020;-37
2021/12/16 04:01:34;;;;;;;6.40;5.35;;;16.00;59.40;;;;;;5114310;28;20023;-37
2021/12/16 04:04:01;;;;;;;7.25;5.22;;;16.10;59.40;;;;;;5114217;28;20018;-36
2021/12/16 04:06:28;;;;;;;5.78;4.82;;;16.00;59.40;;;;;;5113964;28;20019;-36
2021/12/16 04:08:55;;;;;;;6.30;5.32;;;16.00;59.30;;;;;;5113951;28;20015;-36
2021/12/16 04:11:24;;;;;;;6.20;4.75;;;16.00;59.40;;;;;;5113988;28;20386;-36
2021/12/16 04:13:56;;;;;;;6.68;5.43;;;16.00;59.50;;;;;;5113867;28;20019;-40
2021/12/16 04:16:25;;;;;;;6.90;5.45;;;16.00;59.60;;;;;;5113600;28;20048;-36
2021/12/16 04:18:51;;;;;;;6.50;5.22;;;16.00;59.70;;;;;;5113896;28;20029;-36
2021/12/16 04:21:19;;;;;;;5.88;4.93;;;16.00;60.30;;;;;;5095870;28;20023;-36
2021/12/16 04:23:46;;;;;;;6.18;5.40;;;16.00;59.70;;;;;;5113619;28;20016;-36
2021/12/16 04:26:12;;;;;;;7.40;5.00;;;16.00;59.60;;;;;;5113966;28;20016;-36
2021/12/16 04:28:38;;;;;;;6.97;5.22;;;16.10;59.00;;;;;;5112677;28;20365;-36
2021/12/16 04:31:04;;;;;;;5.82;5.22;;;16.30;58.70;;;;;;5113409;28;20027;-36
2021/12/16 04:33:30;;;;;;;5.97;5.38;;;16.40;58.20;;;;;;5113474;28;20099;-36
2021/12/16 04:35:56;;;;;;;5.63;4.90;;;16.50;57.90;;;;;;5078422;28;20020;-36
2021/12/16 04:38:22;;;;;;;6.55;5.07;;;16.60;57.80;;;;;;5113347;28;20028;-36
2021/12/16 04:40:49;;;;;;;5.93;5.07;;;16.60;57.50;;;;;;5113222;28;20030;-36
2021/12/16 04:43:20;;;;;;;5.53;4.88;;;16.70;57.30;;;;;;5113510;28;20086;-36
2021/12/16 04:45:46;;;;;;;7.00;5.18;;;16.80;57.10;;;;;;5113504;28;20016;-36
2021/12/16 04:48:13;;;;;;;5.20;4.70;;;16.80;56.80;;;;;;5113544;28;20047;-36
2021/12/16 04:50:39;;;;;;;6.32;5.10;;;16.90;56.50;;;;;;5113529;28;20023;-36
2021/12/16 04:53:05;;;;;;;6.25;5.00;;;17.00;56.30;;;;;;5113573;28;20378;-36
2021/12/16 04:55:33;;;;;;;6.85;5.22;;;17.10;56.20;;;;;;5095476;28;20016;-36
2021/12/16 04:57:59;;;;;;;6.97;4.88;;;17.10;56.00;;;;;;5095767;28;20031;-37
2021/12/16 05:00:25;;;;;;;5.18;4.60;;;17.20;55.90;;;;;;5095979;28;20027;-36
2021/12/16 05:02:51;;;;;;;6.88;4.82;;;17.20;55.90;;;;;;5095705;28;20064;-37
2021/12/16 05:05:17;;;;;;;5.68;5.00;;;17.30;55.60;;;;;;5114448;28;20018;-37
2021/12/16 05:07:44;;;;;;;5.60;4.50;;;17.30;55.40;;;;;;5114707;28;20015;-37
2021/12/16 05:10:12;;;;;;;5.38;4.80;;;17.40;55.30;;;;;;5096297;28;20028;-37
2021/12/16 05:12:44;;;;;;;5.28;4.78;;;17.50;55.10;;;;;;5096993;28;20018;-37
2021/12/16 05:15:15;;;;;;;5.68;4.72;;;17.50;54.80;;;;;;5115033;28;20474;-38
2021/12/16 05:17:45;;;;;;;5.50;4.57;;;17.60;54.70;;;;;;5114534;28;20122;-36
2021/12/16 05:20:15;;;;;;;5.55;4.63;;;17.70;54.50;;;;;;5096913;28;20031;-37
2021/12/16 05:28:11;;;;;;;6.13;4.75;;;18.00;53.80;;;;;;5113602;28;20028;-36
2021/12/16 05:30:40;;;;;;;4.85;4.35;;;18.00;53.60;;;;;;5113211;28;20011;-36
2021/12/16 05:33:05;;;;;;;5.47;4.70;;;18.00;53.50;;;;;;5113073;28;20015;-36
2021/12/16 05:35:31;;;;;;;5.65;4.53;;;18.10;53.30;;;;;;5094968;28;20080;-36
2021/12/16 05:37:57;;;;;;;5.63;4.28;;;18.10;53.20;;;;;;5113131;28;20069;-37
2021/12/16 05:40:24;;;;;;;5.65;4.65;;;18.20;53.00;;;;;;5081231;28;20031;-38
2021/12/16 05:42:57;;;;;;;5.38;4.13;;;18.20;52.90;;;;;;5117196;28;20105;-38
2021/12/16 05:45:23;;;;;;;6.18;4.78;;;18.30;52.80;;;;;;5117235;28;20027;-38
2021/12/16 05:47:50;;;;;;;5.88;4.68;;;18.40;52.70;;;;;;5099122;28;20016;-38
2021/12/16 05:50:16;;;;;;;5.38;4.60;;;18.40;52.50;;;;;;5117059;28;20011;-38
2021/12/16 05:52:43;;;;;;;5.65;4.57;;;18.50;52.30;;;;;;5116866;28;20012;-39
2021/12/16 05:55:09;;;;;;;5.00;4.40;;;18.50;52.30;;;;;;5116859;28;20012;-38
2021/12/16 05:57:35;;;;;;;5.90;4.57;;;18.50;52.20;;;;;;5116553;28;20019;-38
2021/12/16 06:00:02;;;;;;;4.80;4.30;;;18.50;52.10;;;;;;5081672;28;20019;-36
2021/12/16 06:02:29;;;;;;;5.80;4.40;;;18.60;52.10;;;;;;5116700;28;20027;-36
2021/12/16 06:04:55;;;;;;;5.28;4.07;;;18.60;52.00;;;;;;5116237;28;20019;-36
2021/12/16 06:07:21;;;;;;;5.32;4.30;;;18.60;51.90;;;;;;5116580;28;20067;-37
2021/12/16 06:09:47;;;;;;;5.53;4.88;;;18.60;51.90;;;;;;5116745;28;20007;-36
2021/12/16 06:12:14;;;;;;;4.60;4.10;;;18.70;51.90;;;;;;5116649;28;20484;-36
2021/12/16 06:14:55;;;;;;;5.22;4.50;;;18.70;51.80;;;;;;5116931;28;20093;-36
2021/12/16 06:28:05;;;;;;;5.78;4.20;;;18.80;51.30;;;;;;5116903;28;20081;-39
2021/12/16 06:30:38;;;;;;;5.07;4.40;;;18.90;51.20;;;;;;5098835;28;20470;-39
2021/12/16 06:33:05;;;;;;;5.57;4.18;;;18.90;51.10;;;;;;5116294;28;20019;-38
2021/12/16 06:35:31;;;;;;;4.57;3.88;;;18.90;51.10;;;;;;5115851;28;20027;-38
2021/12/16 06:37:57;;;;;;;5.07;4.20;;;18.90;51.10;;;;;;5081004;28;20022;-38
2021/12/16 06:40:29;;;;;;;5.05;4.30;;;18.90;51.10;;;;;;5098715;28;20031;-39
2021/12/16 06:42:57;;;;;;;4.25;3.67;;;18.90;50.90;;;;;;5097367;28;20049;-39
2021/12/16 06:45:28;;;;;;;4.78;4.15;;;19.00;50.90;;;;;;5097576;28;20367;-40
2021/12/16 06:48:04;;;;;;;4.75;4.03;;;19.10;50.80;;;;;;5115332;28;20088;-39
2021/12/16 06:50:43;;;;;;;4.40;4.00;;;19.10;50.80;;;;;;5097436;28;20501;-39
2021/12/16 06:53:15;;;;;;;5.20;4.38;;;19.10;50.70;;;;;;5115466;28;20689;-39
2021/12/16 06:55:47;;;;;;;4.57;3.83;;;19.10;50.70;;;;;;5114958;28;20481;-40
2021/12/16 07:00:46;;;;;;;6.07;4.07;;;19.10;50.60;;;;;;5114796;28;20031;-41
2021/12/16 07:03:21;;;;;;;4.88;4.07;;;19.10;50.60;;;;;;5114392;28;20095;-40
2021/12/16 07:05:53;;;;;;;5.05;4.05;;;19.10;50.50;;;;;;5113867;28;20201;-46
2021/12/16 07:08:19;;;;;;;4.85;3.88;;;19.20;50.50;;;;;;5114049;28;20027;-42
2021/12/16 07:10:54;;;;;;;5.00;4.32;;;19.20;50.50;;;;;;5095410;28;20038;-42
2021/12/16 07:13:35;;;;;;;4.53;3.85;;;19.20;50.40;;;;;;5113835;28;20458;-42
2021/12/16 07:16:03;;;;;;;5.25;4.32;;;19.30;50.40;;;;;;5113784;28;20051;-41
2021/12/16 07:18:29;;;;;;;4.47;3.92;;;19.30;50.40;;;;;;5095164;28;20023;-46
2021/12/16 07:20:58;;;;;;;6.40;4.22;;;19.20;50.30;;;;;;5112804;28;20030;-37
2021/12/16 07:23:24;;;;;;;5.22;4.18;;;19.20;50.30;;;;;;5077315;28;20469;-36
2021/12/16 07:25:49;;;;;;;5.03;3.92;;;19.30;50.20;;;;;;5113335;28;20114;-36
2021/12/16 07:28:15;;;;;;;5.00;3.97;;;19.30;50.20;;;;;;5095672;28;20012;-38
2021/12/16 07:30:43;;;;;;;5.50;4.10;;;19.30;50.20;;;;;;5095702;28;20441;-36
2021/12/16 07:33:09;;;;;;;5.97;4.00;;;19.30;50.20;;;;;;5095620;28;20102;-35
2021/12/16 07:35:35;;;;;;;6.18;4.15;;;19.40;50.20;;;;;;5095799;28;20023;-36
2021/12/16 07:38:01;;;;;;;5.57;4.07;;;19.30;50.20;;;;;;5096068;28;20072;-36
2021/12/16 07:40:30;;;;;;;5.20;3.97;;;19.40;50.20;;;;;;5078530;28;20058;-38
2021/12/16 07:45:33;;;;;;;4.63;4.10;;;19.40;50.30;;;;;;5114299;28;20027;-43
2021/12/16 07:47:59;;;;;;;5.65;4.20;;;19.40;50.30;;;;;;5096136;28;20008;-38
2021/12/16 07:50:25;;;;;;;6.53;4.13;;;19.40;50.40;;;;;;5113612;28;20367;-38
2021/12/16 07:52:54;;;;;;;6.28;4.50;;;19.40;50.50;;;;;;5113230;28;20073;-38
2021/12/16 07:55:20;;;;;;;5.38;4.43;;;19.30;50.60;;;;;;5113677;28;20011;-47
2021/12/16 07:57:46;;;;;;;6.97;4.60;;;19.30;50.60;;;;;;5095766;28;20051;-40
2021/12/16 08:00:36;;;;;;;7.30;4.40;;;19.30;50.80;;;;;;5114001;28;20016;-43
2021/12/16 08:03:04;;;;;;;5.78;4.47;;;19.30;51.00;;;;;;5098926;28;20024;-39
2021/12/16 08:05:32;;;;;;;6.22;4.38;;;19.20;51.10;;;;;;5114369;28;20034;-37
2021/12/16 08:07:58;;;;;;;7.15;4.35;;;19.20;51.30;;;;;;5114025;28;20081;-38
2021/12/16 08:10:24;;;;;;;5.60;4.38;;;19.10;51.50;;;;;;5113907;28;20466;-38
2021/12/16 08:12:50;;;;;;;6.13;4.75;;;19.10;51.60;;;;;;5095817;28;20497;-37
2021/12/16 08:15:16;;;;;;;7.47;4.80;;;19.00;51.70;;;;;;5114473;28;20020;-36
2021/12/16 08:17:42;;;;;;;7.03;4.70;;;19.00;51.80;;;;;;5113469;28;20043;-36
2021/12/16 08:20:10;;;;;;;8.25;5.45;;;19.00;51.90;;;;;;5114033;28;20022;-36
2021/12/16 08:22:36;;;;;;;8.63;4.60;;;19.00;52.00;;;;;;5095783;28;20015;-36
2021/12/16 08:25:02;;;;;;;6.35;4.55;;;19.00;52.00;;;;;;5095722;28;20157;-36
2021/12/16 08:27:28;;;;;;;7.15;4.90;;;19.00;52.00;;;;;;5078925;28;20004;-38
2021/12/16 08:29:55;;;;;;;6.10;4.70;;;18.90;52.10;;;;;;5113250;28;20004;-36
2021/12/16 08:32:20;;;;;;;7.10;4.72;;;19.00;52.10;;;;;;5078319;28;20039;-37
2021/12/16 08:34:46;;;;;;;6.20;4.68;;;19.00;52.10;;;;;;5095268;28;20022;-37
2021/12/16 08:37:14;;;;;;;6.45;4.90;;;19.00;52.20;;;;;;5113293;28;20022;-36
2021/12/16 08:39:39;;;;;;;7.45;5.10;;;19.00;52.30;;;;;;5094760;28;20335;-37
2021/12/16 08:42:09;;;;;;;10.13;4.63;;;19.00;52.30;;;;;;5077524;28;20107;-37
2021/12/16 08:44:35;;;;;;;6.65;4.70;;;19.00;52.40;;;;;;5094269;28;20064;-39
2021/12/16 08:47:04;;;;;;;7.30;5.03;;;19.00;52.30;;;;;;5094850;28;20062;-37
2021/12/16 08:49:31;;;;;;;7.32;4.22;;;19.00;52.40;;;;;;5094710;28;20019;-38
2021/12/16 08:52:00;;;;;;;8.43;4.95;;;19.00;52.40;;;;;;5077515;28;20445;-44
2021/12/16 08:54:27;;;;;;;8.93;5.40;;;18.90;52.40;;;;;;5112555;28;20027;-39
2021/12/16 08:56:53;;;;;;;6.53;4.60;;;19.00;52.40;;;;;;5094737;28;20016;-38
2021/12/16 08:59:20;;;;;;;8.07;5.30;;;19.00;52.40;;;;;;5112826;28;20035;-40
2021/12/16 09:01:48;;;;;;;6.93;5.10;;;19.00;52.90;;;;;;5077842;28;20023;-45
2021/12/16 09:04:19;;;;;;;8.00;5.22;;;19.00;52.40;;;;;;5112341;28;20374;-40
2021/12/16 09:06:45;;;;;;;6.80;5.25;;;19.00;52.50;;;;;;5112250;28;20036;-39
2021/12/16 09:09:11;;;;;;;7.30;5.30;;;19.00;52.40;;;;;;5112171;28;20023;-39
2021/12/16 09:11:43;;;;;;;7.22;5.03;;;19.00;52.40;;;;;;5094285;28;20020;-39
2021/12/16 09:14:09;;;;;;;7.05;5.30;;;19.00;52.50;;;;;;5113583;28;20019;-39
2021/12/16 09:16:37;;;;;;;8.27;5.35;;;19.00;52.50;;;;;;5097861;28;20050;-39
2021/12/16 09:19:05;;;;;;;8.02;5.40;;;19.00;52.50;;;;;;5098253;28;20367;-39
2021/12/16 09:21:32;;;;;;;10.45;5.25;;;19.00;52.60;;;;;;5116248;28;20023;-37
2021/12/16 09:23:58;;;;;;;9.98;5.50;;;19.00;52.50;;;;;;5116925;28;20008;-36
2021/12/16 09:26:24;;;;;;;7.35;5.03;;;19.00;52.50;;;;;;5081241;28;20022;-37
2021/12/16 09:28:50;;;;;;;7.50;5.10;;;19.00;52.50;;;;;;5116551;28;20012;-37
2021/12/16 09:31:19;;;;;;;9.00;5.50;;;19.00;52.50;;;;;;5098621;28;20012;-37
2021/12/16 09:33:47;;;;;;;7.15;5.00;;;19.00;52.50;;;;;;5116809;28;20011;-37
2021/12/16 09:36:13;;;;;;;8.80;5.32;;;19.00;52.50;;;;;;5116807;28;20012;-37
2021/12/16 09:38:40;;;;;;;11.15;5.88;;;19.00;52.50;;;;;;5116488;28;20032;-37
2021/12/16 09:41:06;;;;;;;9.52;5.35;;;19.00;52.60;;;;;;5116745;28;20059;-37
2021/12/16 09:43:38;;;;;;;8.77;5.40;;;19.00;52.50;;;;;;5116229;28;20080;-37
2021/12/16 09:46:07;;;;;;;6.18;5.28;;;19.00;52.50;;;;;;5116536;28;20007;-37
2021/12/16 09:48:35;;;;;;;10.65;5.75;;;19.00;52.50;;;;;;5098777;28;20465;-37
2021/12/16 09:51:06;;;;;;;8.82;5.32;;;19.00;52.60;;;;;;5098782;28;20044;-37
2021/12/16 09:53:33;;;;;;;9.35;5.05;;;19.00;52.50;;;;;;5116454;28;20031;-37
2021/12/16 09:56:01;;;;;;;7.97;5.22;;;19.00;52.60;;;;;;5116768;28;20027;-37
2021/12/16 09:58:34;;;;;;;9.77;5.68;;;19.00;52.40;;;;;;5116257;28;20030;-37
2021/12/16 10:01:00;;;;;;;7.97;5.32;;;19.00;52.50;;;;;;5116713;28;20028;-37
2021/12/16 10:03:25;;;;;;;10.68;5.32;;;19.00;52.50;;;;;;5116203;28;20008;-37
2021/12/16 10:05:51;;;;;;;8.50;5.30;;;19.00;52.50;;;;;;5098091;28;20023;-37
2021/12/16 10:08:17;;;;;;;12.57;6.20;;;19.00;52.60;;;;;;5116541;28;20023;-37
2021/12/16 10:10:44;;;;;;;8.90;5.63;;;19.00;52.60;;;;;;5115930;28;20466;-36
2021/12/16 10:13:12;;;;;;;7.80;5.30;;;19.00;52.50;;;;;;5116308;28;20016;-36
2021/12/16 10:18:19;;;;;;;8.23;5.97;;;19.10;52.50;;;;;;5116481;28;20020;-36
2021/12/16 10:20:58;;;;;;;9.82;6.25;;;19.00;52.50;;;;;;5116506;28;20027;-37
2021/12/16 10:23:26;;;;;;;8.45;5.57;;;19.10;52.40;;;;;;5116219;28;20026;-37
2021/12/16 10:26:07;;;;;;;8.23;5.82;;;19.10;52.40;;;;;;5114486;28;20012;-37
2021/12/16 10:28:37;;;;;;;11.00;5.45;;;19.10;52.40;;;;;;5116077;28;20024;-37
2021/12/16 10:31:34;;;;;;;8.27;5.20;;;19.10;52.40;;;;;;5098008;28;20019;-38
2021/12/16 10:34:08;;;;;;;7.90;5.35;;;19.10;52.40;;;;;;5082323;28;20032;-37
2021/12/16 10:36:33;;;;;;;8.65;5.60;;;19.10;52.40;;;;;;5116102;28;20043;-39
2021/12/16 10:39:09;;;;;;;7.95;5.82;;;19.10;52.30;;;;;;5115599;28;20018;-39
2021/12/16 10:41:38;;;;;;;9.77;5.88;;;19.20;52.30;;;;;;5098655;28;20048;-41
2021/12/16 10:44:35;;;;;;;8.73;5.90;;;19.10;52.30;;;;;;5115704;28;20462;-40
2021/12/16 10:47:04;;;;;;;9.32;6.38;;;19.10;52.30;;;;;;5097401;28;20020;-40
2021/12/16 10:49:33;;;;;;;9.00;6.05;;;19.20;52.20;;;;;;5116100;28;20050;-40
2021/12/16 10:52:01;;;;;;;10.38;5.80;;;19.10;52.20;;;;;;5080791;28;20043;-40
2021/12/16 10:54:29;;;;;;;6.85;5.45;;;19.10;52.20;;;;;;5115624;28;20441;-39
2021/12/16 10:56:59;;;;;;;10.68;5.78;;;19.10;52.20;;;;;;5115597;28;20474;-39
2021/12/16 10:59:31;;;;;;;10.65;5.90;;;19.20;52.10;;;;;;5115620;28;20034;-37
2021/12/16 11:02:01;;;;;;;8.27;5.80;;;19.20;52.00;;;;;;5115291;28;20485;-37
2021/12/16 11:04:53;;;;;;;6.72;5.60;;;19.20;52.00;;;;;;5096725;28;20047;-37
2021/12/16 11:07:28;;;;;;;7.65;5.68;;;19.20;52.00;;;;;;5101968;28;20042;-37
2021/12/16 11:10:09;;;;;;;12.02;5.70;;;19.20;51.90;;;;;;5115487;28;20007;-37
2021/12/16 11:12:54;;;;;;;8.30;5.68;;;19.20;51.90;;;;;;5096748;28;20474;-37
2021/12/16 11:15:30;;;;;;;10.00;5.70;;;19.30;51.90;;;;;;5114954;28;20008;-37
2021/12/16 11:17:56;;;;;;;8.32;5.68;;;19.30;51.90;;;;;;5074345;28;20024;-37
2021/12/16 11:20:41;;;;;;;8.80;5.90;;;19.30;51.90;;;;;;5073856;28;20597;-37
2021/12/16 11:23:17;;;;;;;11.80;6.18;;;19.30;51.80;;;;;;5073122;28;20051;-37
2021/12/16 11:25:49;;;;;;;8.20;6.03;;;19.30;51.80;;;;;;5073834;28;20005;-37
2021/12/16 11:28:25;;;;;;;8.82;5.90;;;19.40;51.80;;;;;;5074340;28;20095;-37
2021/12/16 11:30:57;;;;;;;9.68;5.63;;;19.40;51.80;;;;;;5074242;28;20095;-37
2021/12/16 11:33:33;;;;;;;10.32;5.80;;;19.40;51.70;;;;;;5074054;28;20099;-37
2021/12/16 11:36:15;;;;;;;10.73;5.97;;;19.40;51.80;;;;;;5073883;28;20471;-37
2021/12/16 11:38:59;;;;;;;9.30;6.47;;;19.40;51.70;;;;;;5074179;28;20108;-37
2021/12/16 11:41:34;;;;;;;8.18;5.55;;;19.50;51.60;;;;;;5074396;28;20055;-37
2021/12/16 11:44:16;;;;;;;7.95;5.75;;;19.60;51.60;;;;;;5073883;28;20008;-37
2021/12/16 11:46:52;;;;;;;9.85;6.30;;;19.60;51.50;;;;;;5074051;28;20063;-37
2021/12/16 11:49:25;;;;;;;10.73;5.93;;;19.60;51.50;;;;;;5072549;28;20375;-37
2021/12/16 11:51:59;;;;;;;10.55;6.63;;;19.60;51.50;;;;;;5072522;28;20060;-37
2021/12/16 11:54:34;;;;;;;10.25;6.10;;;19.60;51.50;;;;;;5073667;28;20111;-37
2021/12/16 11:57:10;;;;;;;8.85;6.07;;;19.60;51.50;;;;;;5074321;28;20024;-37
2021/12/16 11:59:41;;;;;;;10.18;5.88;;;19.70;51.40;;;;;;5074159;28;20020;-38
2021/12/16 12:02:32;;;;;;;9.50;6.13;;;19.70;51.80;;;;;;5073733;28;20024;-37
2021/12/16 12:05:16;;;;;;;9.63;5.80;;;19.70;51.80;;;;;;5073627;28;20017;-37
2021/12/16 12:07:44;;;;;;;9.10;5.82;;;19.70;51.20;;;;;;5073430;28;20028;-37
2021/12/16 12:10:10;;;;;;;10.50;5.88;;;19.70;51.00;;;;;;5073743;28;20024;-37
2021/12/16 12:12:46;;;;;;;11.40;6.15;;;19.70;51.00;;;;;;5072281;28;20493;-37
2021/12/16 12:15:12;;;;;;;8.18;5.75;;;19.70;51.00;;;;;;5073892;28;20122;-37
2021/12/16 12:17:47;;;;;;;9.20;5.90;;;19.70;51.00;;;;;;5110940;28;20039;-37
2021/12/16 12:20:13;;;;;;;11.18;6.22;;;19.70;51.00;;;;;;5114457;28;20019;-40
2021/12/16 12:22:39;;;;;;;8.23;5.53;;;19.80;51.00;;;;;;5095770;28;20478;-41
2021/12/16 12:25:05;;;;;;;10.60;6.18;;;19.70;51.00;;;;;;5095372;28;20022;-41
2021/12/16 12:27:31;;;;;;;9.23;5.80;;;19.80;51.00;;;;;;5113346;28;20015;-40
2021/12/16 12:30:01;;;;;;;9.77;5.95;;;19.70;51.00;;;;;;5113507;28;20007;-39
2021/12/16 12:32:28;;;;;;;7.55;6.03;;;19.70;51.00;;;;;;5113645;28;20018;-40
2021/12/16 12:35:03;;;;;;;10.30;6.05;;;19.70;51.00;;;;;;5113916;28;20011;-40
2021/12/16 12:37:31;;;;;;;10.30;5.75;;;19.80;51.00;;;;;;5094831;28;20469;-39
2021/12/16 12:40:15;;;;;;;7.88;5.70;;;19.70;50.90;;;;;;5113463;28;20470;-37
2021/12/16 12:42:41;;;;;;;9.18;5.85;;;19.80;51.00;;;;;;5097272;28;20023;-37
2021/12/16 12:45:08;;;;;;;9.13;6.30;;;19.70;51.00;;;;;;5113841;28;20091;-37
2021/12/16 12:47:35;;;;;;;11.10;5.93;;;19.70;51.00;;;;;;5113715;28;20019;-37
2021/12/16 12:50:11;;;;;;;10.38;5.78;;;19.70;51.00;;;;;;5112974;28;20045;-37
2021/12/16 12:52:37;;;;;;;8.60;5.70;;;19.70;51.00;;;;;;5113905;28;20020;-37
2021/12/16 12:55:12;;;;;;;10.70;6.63;;;19.70;51.00;;;;;;5113916;28;20409;-37
2021/12/16 12:57:39;;;;;;;9.70;5.40;;;19.70;51.00;;;;;;5113761;28;20141;-38
2021/12/16 13:00:08;;;;;;;9.00;6.40;;;19.70;51.00;;;;;;5113718;28;20016;-37
2021/12/16 13:02:36;;;;;;;9.13;5.45;;;19.70;51.00;;;;;;5095566;28;20499;-38
2021/12/16 13:05:10;;;;;;;8.13;5.30;;;19.70;51.00;;;;;;5114030;28;20091;-37
2021/12/16 13:07:44;;;;;;;10.00;6.22;;;19.70;51.10;;;;;;5113639;28;20015;-37
2021/12/16 13:10:17;;;;;;;9.38;6.30;;;19.70;51.10;;;;;;5113779;28;20008;-37
2021/12/16 13:24:05;;;;;;;8.05;5.63;;;19.70;51.20;;;;;;5113637;28;20496;-39
2021/12/16 13:26:50;;;;;;;9.38;5.75;;;19.70;51.20;;;;;;5113609;28;20016;-40
2021/12/16 13:29:37;;;;;;;8.65;5.95;;;19.70;51.30;;;;;;5113524;28;20024;-40
2021/12/16 13:32:15;;;;;;;9.00;6.22;;;19.70;51.20;;;;;;5113225;28;20012;-41
2021/12/16 13:35:41;;;;;;;8.40;5.80;;;19.70;51.20;;;;;;5096348;28;20008;-40
2021/12/16 13:38:06;;;;;;;10.00;6.60;;;19.70;51.20;;;;;;5112789;28;20529;-42
2021/12/16 13:40:37;;;;;;;10.55;6.18;;;19.70;51.30;;;;;;5113757;28;20032;-38
2021/12/16 13:43:10;;;;;;;9.38;6.55;;;19.70;51.30;;;;;;5113520;28;20091;-37
2021/12/16 13:46:19;;;;;;;10.10;6.53;;;19.60;51.30;;;;;;5096022;28;20023;-37
2021/12/16 13:49:13;;;;;;;10.65;6.60;;;19.60;51.40;;;;;;5113627;28;20016;-38
2021/12/16 14:08:45;;;;;;;10.70;6.43;;;19.60;51.60;;;;;;5117104;28;20393;-39
2021/12/16 14:17:12;;;;;;;10.68;6.88;;;19.60;51.60;;;;;;5116783;28;20043;-40
2021/12/16 14:25:38;;;;;;;10.48;7.13;;;19.60;51.60;;;;;;5116866;28;20038;-38
2021/12/16 14:31:46;;;;;;;9.85;6.70;;;19.60;51.60;;;;;;5067779;28;20032;-37
2021/12/16 14:42:31;;;;;;;9.52;6.70;;;19.50;51.90;;;;;;5116499;28;20024;-40
2021/12/16 14:45:25;;;;;;;10.48;6.97;;;19.40;51.90;;;;;;5116498;28;20020;-39
2021/12/16 14:50:41;;;;;;;10.85;6.95;;;19.30;52.20;;;;;;5116937;28;20485;-41
2021/12/16 14:53:31;;;;;;;9.90;7.30;;;19.30;52.20;;;;;;5116393;28;20011;-40
2021/12/16 14:56:05;;;;;;;9.32;7.38;;;19.30;52.40;;;;;;5116382;28;20035;-40
2021/12/16 14:58:31;;;;;;;9.82;7.07;;;19.20;52.50;;;;;;5116161;28;20040;-39
2021/12/16 15:01:07;;;;;;;9.55;7.35;;;19.20;52.60;;;;;;5098483;28;20465;-38
2021/12/16 15:03:37;;;;;;;11.02;7.45;;;19.20;52.70;;;;;;5116149;28;20457;-38
2021/12/16 15:06:07;;;;;;;10.30;7.75;;;19.10;52.70;;;;;;5098947;28;20027;-38
2021/12/16 15:08:47;;;;;;;9.55;7.28;;;19.10;52.80;;;;;;5116754;28;20020;-37
2021/12/16 15:11:25;;;;;;;11.82;7.38;;;19.10;52.90;;;;;;5098377;28;20011;-37
2021/12/16 15:14:00;;;;;;;10.55;7.78;;;19.10;53.00;;;;;;5116188;28;20043;-38
2021/12/16 15:16:46;;;;;;;11.38;7.95;;;18.90;53.10;;;;;;5099093;28;20044;-37
2021/12/16 15:39:08;;;;;;;11.07;8.02;;;18.50;54.10;;;;;;5117388;28;20026;-39
2021/12/16 15:44:17;;;;;;;12.48;8.20;;;18.50;54.40;;;;;;5114624;28;20019;-40
2021/12/16 15:46:44;;;;;;;13.10;8.15;;;18.40;54.40;;;;;;5114480;28;20019;-42
2021/12/16 15:49:10;;;;;;;11.57;7.95;;;18.50;54.50;;;;;;5096816;28;20023;-41
2021/12/16 15:51:36;;;;;;;13.30;8.63;;;18.40;54.50;;;;;;5114744;28;20015;-41
2021/12/16 15:54:04;;;;;;;10.60;8.43;;;18.40;54.50;;;;;;5114132;28;20020;-41
2021/12/16 15:56:36;;;;;;;10.80;8.25;;;18.40;54.50;;;;;;5114568;28;20058;-41
2021/12/16 15:59:06;;;;;;;9.88;8.10;;;18.40;54.60;;;;;;5114358;28;20099;-41
2021/12/16 16:01:37;;;;;;;12.85;8.65;;;18.40;54.60;;;;;;5096428;28;20053;-43
2021/12/16 16:04:09;;;;;;;11.07;8.30;;;18.40;54.60;;;;;;5113957;28;20369;-42
2021/12/16 16:06:35;;;;;;;11.35;8.57;;;18.30;54.70;;;;;;5114041;28;20466;-43
2021/12/16 16:09:03;;;;;;;13.25;8.50;;;18.30;54.80;;;;;;5114307;28;20032;-43
2021/12/16 16:11:32;;;;;;;12.35;8.20;;;18.20;54.90;;;;;;5113945;28;20469;-43
2021/12/16 16:14:00;;;;;;;10.07;8.05;;;18.20;55.00;;;;;;5114302;28;20425;-44
2021/12/16 16:16:33;;;;;;;12.00;8.55;;;18.20;54.90;;;;;;5114112;28;20498;-44
2021/12/16 16:19:00;;;;;;;11.90;8.77;;;18.20;54.90;;;;;;5114600;28;20019;-44
2021/12/16 16:21:34;;;;;;;11.82;8.50;;;18.20;54.90;;;;;;5114368;28;20106;-46
2021/12/16 16:24:16;;;;;;;10.30;8.15;;;18.20;55.10;;;;;;5114429;28;20011;-43
2021/12/16 16:26:42;;;;;;;11.57;8.40;;;18.10;55.20;;;;;;5114811;28;20061;-48
2021/12/16 16:29:14;;;;;;;12.25;8.43;;;18.10;55.30;;;;;;5113889;28;20007;-43
2021/12/16 16:31:41;;;;;;;11.55;8.05;;;18.10;55.40;;;;;;5096522;28;20087;-47
2021/12/16 16:34:36;;;;;;;11.27;8.70;;;18.00;55.50;;;;;;5113948;28;20027;-43
2021/12/16 16:37:04;;;;;;;13.10;8.35;;;18.00;55.70;;;;;;5113260;28;20012;-43
2021/12/16 16:39:35;;;;;;;11.82;8.45;;;18.00;55.70;;;;;;5113951;28;20022;-44
2021/12/16 16:42:12;;;;;;;11.07;8.30;;;17.90;55.90;;;;;;5095448;28;20020;-43
2021/12/16 16:44:39;;;;;;;13.18;8.82;;;17.90;55.90;;;;;;5113817;28;20019;-44
2021/12/16 16:47:11;;;;;;;11.68;8.55;;;17.80;56.50;;;;;;5113337;28;20035;-43
2021/12/16 16:49:46;;;;;;;13.10;8.75;;;17.80;56.00;;;;;;5113262;28;20016;-44